Time;durP1;ratioP1;P1;durP2;ratioP2;P2;SDS_P1;SDS_P2;PMS_P1;PMS_P2;Temp;Humidity;BMP_temperature;BMP_pressure;BME280_temperature;BME280_humidity;BME280_pressure;Samples;Min_cycle;Max_cycle;Signal;HPM_P1;HPM_P2
2022/07/05 00:02:21;;;;;;;3.65;1.40;;;;;;;;;;5014752;28;20115;-67
2022/07/05 00:04:47;;;;;;;3.17;1.63;;;;;;;;;;5014795;28;20364;-67
2022/07/05 00:07:19;;;;;;;3.22;1.50;;;;;;;;;;5014747;28;20032;-67
2022/07/05 00:09:47;;;;;;;6.75;1.70;;;;;;;;;;5014815;28;20030;-68
2022/07/05 00:12:13;;;;;;;4.07;1.65;;;;;;;;;;5014396;28;20084;-66
2022/07/05 00:14:39;;;;;;;3.85;1.27;;;;;;;;;;5014531;28;20251;-67
2022/07/05 00:17:05;;;;;;;2.78;1.40;;;;;;;;;;5014473;28;20029;-68
2022/07/05 00:19:31;;;;;;;8.88;1.60;;;;;;;;;;5014150;28;20108;-67
2022/07/05 00:21:57;;;;;;;2.42;1.50;;;;;;;;;;5024454;28;20112;-68
2022/07/05 00:24:24;;;;;;;3.03;1.45;;;;;;;;;;5034187;28;20056;-67
2022/07/05 00:26:49;;;;;;;3.17;1.50;;;;;;;;;;5033872;28;20033;-66
2022/07/05 00:29:15;;;;;;;3.35;1.60;;;;;;;;;;5032828;28;20028;-67
2022/07/05 00:31:40;;;;;;;3.65;1.65;;;;;;;;;;5034064;28;20109;-67
2022/07/05 00:34:06;;;;;;;6.45;1.50;;;;;;;;;;5033928;28;20026;-66
2022/07/05 00:36:31;;;;;;;2.53;1.52;;;;;;;;;;5034047;28;20029;-66
2022/07/05 00:38:57;;;;;;;3.25;1.15;;;;;;;;;;5033737;28;20022;-65
2022/07/05 00:41:22;;;;;;;3.78;1.63;;;;;;;;;;5033702;28;20025;-67
2022/07/05 00:43:56;;;;;;;9.70;1.80;;;;;;;;;;5033851;28;20017;-67
2022/07/05 00:46:21;;;;;;;4.75;1.55;;;;;;;;;;5033796;28;20475;-65
2022/07/05 00:48:48;;;;;;;3.13;1.10;;;;;;;;;;5033549;28;20032;-65
2022/07/05 00:51:14;;;;;;;3.70;1.30;;;;;;;;;;5033678;28;20390;-64
2022/07/05 00:53:40;;;;;;;3.67;1.50;;;;;;;;;;5032297;28;20060;-67
2022/07/05 00:56:06;;;;;;;3.85;1.70;;;;;;;;;;5033414;28;20032;-65
2022/07/05 00:58:33;;;;;;;3.58;1.55;;;;;;;;;;5033389;28;20021;-65
2022/07/05 01:01:01;;;;;;;3.10;1.38;;;;;;;;;;5033357;28;20063;-67
2022/07/05 01:03:27;;;;;;;4.00;1.63;;;;;;;;;;5033505;28;20034;-66
2022/07/05 01:05:53;;;;;;;2.28;1.35;;;;;;;;;;5033433;28;20022;-67
2022/07/05 01:08:19;;;;;;;3.95;1.60;;;;;;;;;;5033245;28;20025;-63
2022/07/05 01:10:45;;;;;;;3.17;1.67;;;;;;;;;;5032921;28;20052;-65
2022/07/05 01:13:11;;;;;;;4.50;1.60;;;;;;;;;;5033161;28;20059;-65
2022/07/05 01:15:37;;;;;;;5.97;1.60;;;;;;;;;;5033307;28;20045;-68
2022/07/05 01:18:05;;;;;;;3.20;1.30;;;;;;;;;;5033136;28;20037;-68
2022/07/05 01:20:30;;;;;;;2.53;1.42;;;;;;;;;;5033025;28;20053;-67
2022/07/05 01:23:02;;;;;;;3.75;1.75;;;;;;;;;;5051366;28;20116;-66
2022/07/05 01:25:29;;;;;;;4.93;1.42;;;;;;;;;;5052461;28;20037;-67
2022/07/05 01:27:57;;;;;;;6.22;1.70;;;;;;;;;;5033068;28;20022;-65
2022/07/05 01:30:23;;;;;;;3.20;1.80;;;;;;;;;;5032887;28;20109;-67
2022/07/05 01:32:49;;;;;;;3.42;1.63;;;;;;;;;;5032768;28;20108;-66
2022/07/05 01:35:23;;;;;;;4.00;1.80;;;;;;;;;;5032840;28;20493;-65
2022/07/05 01:37:49;;;;;;;5.35;1.73;;;;;;;;;;5032691;28;20022;-67
2022/07/05 01:40:15;;;;;;;3.30;1.65;;;;;;;;;;5032535;28;20462;-67
2022/07/05 01:42:41;;;;;;;3.05;1.60;;;;;;;;;;5032690;28;20033;-63
2022/07/05 01:45:07;;;;;;;9.20;1.70;;;;;;;;;;5032726;28;20128;-66
2022/07/05 01:47:36;;;;;;;4.05;1.77;;;;;;;;;;5032733;28;20033;-67
2022/07/05 01:50:05;;;;;;;3.10;2.00;;;;;;;;;;5032690;28;20026;-66
2022/07/05 01:52:33;;;;;;;8.95;2.83;;;;;;;;;;5032488;28;20017;-67
2022/07/05 01:55:00;;;;;;;3.28;2.10;;;;;;;;;;5032554;28;20029;-69
2022/07/05 01:57:26;;;;;;;3.78;2.10;;;;;;;;;;5032443;28;20474;-65
2022/07/05 01:59:52;;;;;;;5.03;1.90;;;;;;;;;;5032615;28;20026;-66
2022/07/05 02:02:17;;;;;;;5.80;2.22;;;;;;;;;;5032572;28;20032;-67
2022/07/05 02:04:43;;;;;;;4.22;2.00;;;;;;;;;;5032406;28;20030;-65
2022/07/05 02:07:09;;;;;;;9.20;2.00;;;;;;;;;;5032165;28;20029;-68
2022/07/05 02:09:35;;;;;;;6.00;2.22;;;;;;;;;;5032483;28;20037;-65
2022/07/05 02:12:02;;;;;;;3.55;2.03;;;;;;;;;;5032461;28;20056;-66
2022/07/05 02:14:28;;;;;;;3.95;1.88;;;;;;;;;;5032461;28;20032;-67
2022/07/05 02:16:53;;;;;;;2.53;1.75;;;;;;;;;;5032181;28;20030;-67
2022/07/05 02:19:19;;;;;;;4.75;1.90;;;;;;;;;;5032065;28;20064;-68
2022/07/05 02:21:44;;;;;;;4.85;1.83;;;;;;;;;;5031921;28;20033;-68
2022/07/05 02:24:10;;;;;;;4.30;1.90;;;;;;;;;;5032248;28;20065;-67
2022/07/05 02:26:36;;;;;;;8.25;1.83;;;;;;;;;;5032134;28;20029;-68
2022/07/05 02:29:03;;;;;;;4.18;1.80;;;;;;;;;;5032112;28;20032;-67
2022/07/05 02:31:29;;;;;;;2.78;1.70;;;;;;;;;;5032150;28;20112;-64
2022/07/05 02:33:55;;;;;;;3.78;1.67;;;;;;;;;;5031999;28;20100;-68
2022/07/05 02:36:20;;;;;;;2.28;1.75;;;;;;;;;;5031898;28;20408;-67
2022/07/05 02:38:46;;;;;;;3.25;1.70;;;;;;;;;;5032072;28;20029;-68
2022/07/05 02:41:11;;;;;;;3.85;1.63;;;;;;;;;;5032104;28;20116;-66
2022/07/05 02:43:38;;;;;;;5.60;2.17;;;;;;;;;;5032129;28;20029;-68
2022/07/05 02:46:05;;;;;;;5.40;2.00;;;;;;;;;;5032064;28;20029;-68
2022/07/05 02:48:32;;;;;;;8.38;2.00;;;;;;;;;;5032038;28;20328;-66
2022/07/05 02:50:58;;;;;;;4.50;1.73;;;;;;;;;;5031694;28;20022;-67
2022/07/05 02:53:24;;;;;;;3.65;1.70;;;;;;;;;;5034480;28;20080;-66
2022/07/05 02:55:49;;;;;;;5.97;2.28;;;;;;;;;;5035813;28;20030;-67
2022/07/05 02:58:16;;;;;;;3.83;1.95;;;;;;;;;;5035743;28;20540;-68
2022/07/05 03:00:48;;;;;;;5.22;1.85;;;;;;;;;;5035843;28;20025;-70
2022/07/05 03:03:14;;;;;;;7.13;2.08;;;;;;;;;;5035938;28;20036;-65
2022/07/05 03:05:40;;;;;;;4.20;2.35;;;;;;;;;;5035063;28;20029;-66
2022/07/05 03:08:06;;;;;;;4.50;2.40;;;;;;;;;;5035577;28;20419;-67
2022/07/05 03:10:32;;;;;;;4.05;2.30;;;;;;;;;;5035738;28;20056;-68
2022/07/05 03:12:58;;;;;;;6.10;2.10;;;;;;;;;;5035592;28;20026;-66
2022/07/05 03:15:23;;;;;;;5.55;2.25;;;;;;;;;;5035469;28;20060;-66
2022/07/05 03:17:49;;;;;;;5.18;2.58;;;;;;;;;;5035532;28;20021;-67
2022/07/05 03:20:14;;;;;;;6.65;2.75;;;;;;;;;;5035083;28;20099;-68
2022/07/05 03:22:40;;;;;;;3.92;2.33;;;;;;;;;;5051182;28;20066;-67
2022/07/05 03:25:06;;;;;;;3.88;2.50;;;;;;;;;;5055289;28;20438;-67
2022/07/05 03:27:31;;;;;;;4.32;2.42;;;;;;;;;;5055158;28;20020;-68
2022/07/05 03:29:57;;;;;;;4.88;2.42;;;;;;;;;;5055092;28;20543;-68
2022/07/05 03:32:23;;;;;;;7.07;2.30;;;;;;;;;;5055169;28;20036;-66
2022/07/05 03:34:48;;;;;;;7.25;2.13;;;;;;;;;;5054699;28;20512;-67
2022/07/05 03:37:15;;;;;;;9.20;2.75;;;;;;;;;;5055222;28;20107;-67
2022/07/05 03:39:40;;;;;;;8.45;2.70;;;;;;;;;;5055081;28;20028;-67
2022/07/05 03:42:06;;;;;;;6.20;2.03;;;;;;;;;;5055050;28;20536;-68
2022/07/05 03:44:32;;;;;;;3.78;2.28;;;;;;;;;;5054960;28;20128;-66
2022/07/05 03:46:59;;;;;;;5.43;2.10;;;;;;;;;;5054753;28;20051;-65
2022/07/05 03:49:25;;;;;;;11.85;3.20;;;;;;;;;;5054760;28;20024;-66
2022/07/05 03:51:50;;;;;;;4.15;2.00;;;;;;;;;;5054912;28;20025;-68
2022/07/05 03:54:16;;;;;;;6.05;2.40;;;;;;;;;;5054702;28;20044;-67
2022/07/05 03:56:41;;;;;;;5.47;2.15;;;;;;;;;;5054564;28;20028;-67
2022/07/05 03:59:07;;;;;;;11.90;3.53;;;;;;;;;;5054599;28;20072;-66
2022/07/05 04:01:33;;;;;;;4.72;2.30;;;;;;;;;;5054626;28;20474;-69
2022/07/05 04:03:58;;;;;;;6.05;2.20;;;;;;;;;;5054185;28;20029;-67
2022/07/05 04:06:24;;;;;;;7.43;1.70;;;;;;;;;;5054482;28;20040;-65
2022/07/05 04:08:50;;;;;;;9.07;3.92;;;;;;;;;;5054257;28;20462;-66
2022/07/05 04:11:16;;;;;;;8.00;1.75;;;;;;;;;;5054586;28;20048;-68
2022/07/05 04:13:42;;;;;;;4.07;1.70;;;;;;;;;;5054352;28;20032;-67
2022/07/05 04:16:08;;;;;;;5.95;2.13;;;;;;;;;;5053131;28;20135;-64
2022/07/05 04:18:34;;;;;;;7.57;1.88;;;;;;;;;;5054038;28;20020;-68
2022/07/05 04:21:00;;;;;;;5.60;1.75;;;;;;;;;;5053863;28;20147;-67
2022/07/05 04:23:25;;;;;;;5.82;1.85;;;;;;;;;;5054266;28;20390;-68
2022/07/05 04:25:51;;;;;;;4.47;1.67;;;;;;;;;;5054343;28;20118;-66
2022/07/05 04:28:17;;;;;;;8.25;2.03;;;;;;;;;;5054062;28;20032;-68
2022/07/05 04:30:42;;;;;;;5.90;2.10;;;;;;;;;;5054013;28;20036;-64
2022/07/05 04:33:08;;;;;;;4.05;1.90;;;;;;;;;;5053864;28;20040;-67
2022/07/05 04:35:33;;;;;;;3.33;1.80;;;;;;;;;;5053968;28;20433;-67
2022/07/05 04:37:59;;;;;;;8.88;2.05;;;;;;;;;;5053932;28;20406;-66
2022/07/05 04:40:25;;;;;;;2.75;1.60;;;;;;;;;;5053802;28;20104;-68
2022/07/05 04:42:50;;;;;;;4.03;1.70;;;;;;;;;;5053540;28;20044;-67
2022/07/05 04:45:16;;;;;;;4.47;1.75;;;;;;;;;;5053800;28;20462;-66
2022/07/05 04:47:41;;;;;;;5.32;1.63;;;;;;;;;;5053407;28;20063;-65
2022/07/05 04:50:07;;;;;;;4.97;1.50;;;;;;;;;;5053620;28;20100;-67
2022/07/05 04:52:33;;;;;;;6.80;1.90;;;;;;;;;;5053516;28;20029;-66
2022/07/05 04:54:59;;;;;;;5.80;1.50;;;;;;;;;;5052175;28;20041;-66
2022/07/05 04:57:24;;;;;;;4.95;1.40;;;;;;;;;;5053434;28;20087;-66
2022/07/05 04:59:50;;;;;;;5.40;2.20;;;;;;;;;;5053499;28;20021;-62
2022/07/05 05:02:16;;;;;;;4.70;1.60;;;;;;;;;;5053184;28;20029;-68
2022/07/05 05:04:41;;;;;;;5.95;1.60;;;;;;;;;;5053359;28;20044;-67
2022/07/05 05:07:08;;;;;;;8.27;1.80;;;;;;;;;;5053051;28;20111;-67
2022/07/05 05:09:33;;;;;;;5.72;1.40;;;;;;;;;;5053166;28;20033;-66
2022/07/05 05:11:59;;;;;;;3.08;1.38;;;;;;;;;;5053130;28;20102;-64
2022/07/05 05:14:24;;;;;;;6.63;1.80;;;;;;;;;;5051506;28;20120;-66
2022/07/05 05:16:50;;;;;;;2.33;1.30;;;;;;;;;;5052376;28;20040;-66
2022/07/05 05:19:15;;;;;;;6.35;1.52;;;;;;;;;;5053041;28;20025;-70
2022/07/05 05:21:41;;;;;;;3.13;1.23;;;;;;;;;;5052900;28;20461;-67
2022/07/05 05:24:07;;;;;;;3.47;1.38;;;;;;;;;;5053145;28;20017;-63
2022/07/05 05:26:32;;;;;;;4.75;1.48;;;;;;;;;;5052964;28;20466;-67
2022/07/05 05:28:58;;;;;;;4.65;1.52;;;;;;;;;;5052689;28;20029;-67
2022/07/05 05:31:24;;;;;;;4.80;1.48;;;;;;;;;;5052798;28;20049;-66
2022/07/05 05:33:49;;;;;;;4.65;1.33;;;;;;;;;;5052764;28;20025;-67
2022/07/05 05:36:15;;;;;;;2.38;1.20;;;;;;;;;;5052722;28;20436;-67
2022/07/05 05:38:40;;;;;;;3.45;1.52;;;;;;;;;;5052811;28;20104;-65
2022/07/05 05:41:06;;;;;;;4.10;1.80;;;;;;;;;;5052739;28;20040;-65
2022/07/05 05:43:32;;;;;;;2.80;1.60;;;;;;;;;;5052786;28;20037;-67
2022/07/05 05:45:58;;;;;;;3.50;1.27;;;;;;;;;;5052481;28;20029;-68
2022/07/05 05:48:24;;;;;;;4.13;1.50;;;;;;;;;;5052565;28;20120;-66
2022/07/05 05:50:50;;;;;;;6.93;1.75;;;;;;;;;;5052486;28;20071;-67
2022/07/05 05:53:16;;;;;;;7.00;2.13;;;;;;;;;;5052593;28;20025;-66
2022/07/05 05:55:42;;;;;;;4.47;1.35;;;;;;;;;;5052499;28;20074;-66
2022/07/05 05:58:17;;;;;;;4.43;1.05;;;;;;;;;;5052450;28;20476;-67
2022/07/05 06:00:47;;;;;;;3.42;1.20;;;;;;;;;;5052238;28;20174;-68
2022/07/05 06:03:14;;;;;;;7.15;1.55;;;;;;;;;;5052522;28;20032;-67
2022/07/05 06:05:40;;;;;;;4.07;1.10;;;;;;;;;;5052330;28;20032;-65
2022/07/05 06:08:06;;;;;;;4.13;1.40;;;;;;;;;;5052266;28;20437;-67
2022/07/05 06:10:33;;;;;;;3.03;1.17;;;;;;;;;;5052471;28;20154;-67
2022/07/05 06:13:01;;;;;;;3.33;1.42;;;;;;;;;;5052424;28;20482;-68
2022/07/05 06:15:27;;;;;;;3.58;1.20;;;;;;;;;;5052088;28;20029;-69
2022/07/05 06:17:52;;;;;;;1.92;1.00;;;;;;;;;;5052185;28;20032;-67
2022/07/05 06:20:23;;;;;;;1.65;1.05;;;;;;;;;;5052080;28;20095;-64
2022/07/05 06:22:49;;;;;;;5.07;1.27;;;;;;;;;;5051899;28;20029;-68
2022/07/05 06:25:15;;;;;;;3.47;0.93;;;;;;;;;;5052235;28;20474;-68
2022/07/05 06:27:45;;;;;;;4.20;1.40;;;;;;;;;;5055405;28;20055;-68
2022/07/05 06:30:14;;;;;;;4.22;1.60;;;;;;;;;;5056051;28;20500;-66
2022/07/05 06:32:40;;;;;;;3.63;1.00;;;;;;;;;;5056228;28;20075;-67
2022/07/05 06:35:06;;;;;;;4.72;1.25;;;;;;;;;;5056088;28;20037;-68
2022/07/05 06:37:46;;;;;;;3.65;1.15;;;;;;;;;;5056168;28;20073;-68
2022/07/05 06:40:16;;;;;;;1.90;1.15;;;;;;;;;;5056117;28;20025;-67
2022/07/05 06:42:42;;;;;;;4.00;1.25;;;;;;;;;;5055919;28;20127;-68
2022/07/05 06:45:08;;;;;;;4.13;1.30;;;;;;;;;;5056028;28;20100;-63
2022/07/05 06:47:34;;;;;;;3.40;1.20;;;;;;;;;;5055925;28;20032;-68
2022/07/05 06:50:02;;;;;;;3.22;1.50;;;;;;;;;;5035852;28;20021;-66
2022/07/05 06:52:28;;;;;;;3.22;1.20;;;;;;;;;;5035939;28;20036;-67
2022/07/05 06:54:53;;;;;;;2.78;1.20;;;;;;;;;;5035692;28;20033;-67
2022/07/05 06:57:23;;;;;;;2.55;1.17;;;;;;;;;;5028276;28;20037;-67
2022/07/05 06:59:49;;;;;;;2.90;1.20;;;;;;;;;;5035839;28;20022;-68
2022/07/05 07:02:15;;;;;;;5.43;1.30;;;;;;;;;;5035804;28;20033;-66
2022/07/05 07:04:41;;;;;;;3.55;1.20;;;;;;;;;;5035740;28;20026;-67
2022/07/05 07:09:50;;;;;;;3.55;1.60;;;;;;;;;;5035228;28;20040;-68
2022/07/05 07:12:16;;;;;;;3.85;1.20;;;;;;;;;;5035433;28;20474;-67
2022/07/05 07:14:41;;;;;;;2.15;1.05;;;;;;;;;;5035567;28;20025;-68
2022/07/05 07:17:07;;;;;;;2.08;1.17;;;;;;;;;;5035679;28;20029;-68
2022/07/05 07:19:33;;;;;;;2.60;0.90;;;;;;;;;;5035103;28;20409;-63
2022/07/05 07:21:58;;;;;;;10.25;3.95;;;;;;;;;;5035330;28;20116;-66
2022/07/05 07:24:24;;;;;;;7.53;4.07;;;;;;;;;;5035323;28;20029;-67
2022/07/05 07:27:04;;;;;;;7.88;1.80;;;;;;;;;;5034853;28;20025;-68
2022/07/05 07:29:31;;;;;;;4.20;1.20;;;;;;;;;;5035291;28;20533;-66
2022/07/05 07:31:58;;;;;;;2.55;1.10;;;;;;;;;;5035429;28;20374;-68
2022/07/05 07:34:24;;;;;;;3.72;1.40;;;;;;;;;;5034962;28;20033;-67
2022/07/05 07:36:51;;;;;;;4.25;1.38;;;;;;;;;;5034131;28;20064;-67
2022/07/05 07:39:17;;;;;;;3.47;1.10;;;;;;;;;;5014769;28;20029;-68
2022/07/05 07:41:42;;;;;;;7.32;1.58;;;;;;;;;;5015094;28;20084;-67
2022/07/05 07:44:08;;;;;;;6.07;1.42;;;;;;;;;;5015122;28;20034;-67
2022/07/05 07:46:34;;;;;;;3.83;1.30;;;;;;;;;;5015134;28;20104;-66
2022/07/05 07:49:00;;;;;;;5.82;1.50;;;;;;;;;;5015057;28;20041;-68
2022/07/05 07:51:27;;;;;;;2.38;1.63;;;;;;;;;;5015138;28;20056;-68
2022/07/05 07:53:52;;;;;;;5.85;1.58;;;;;;;;;;5015041;28;20041;-67
2022/07/05 07:56:18;;;;;;;4.22;1.10;;;;;;;;;;5014684;28;20034;-68
2022/07/05 07:58:44;;;;;;;4.18;1.20;;;;;;;;;;5015034;28;20033;-67
2022/07/05 08:01:11;;;;;;;4.93;1.30;;;;;;;;;;5015047;28;20034;-67
2022/07/05 08:03:40;;;;;;;3.72;1.13;;;;;;;;;;5014969;28;20048;-68
2022/07/05 08:06:10;;;;;;;4.28;1.17;;;;;;;;;;5013551;28;20382;-68
2022/07/05 08:08:40;;;;;;;4.88;1.58;;;;;;;;;;5013853;28;20032;-63
2022/07/05 08:11:06;;;;;;;;;;;;;;;;;;5014793;28;20022;-69
2022/07/05 08:13:31;;;;;;;4.55;1.30;;;;;;;;;;5014725;28;20254;-68
2022/07/05 08:15:58;;;;;;;4.72;1.35;;;;;;;;;;5014681;28;20076;-66
2022/07/05 08:23:52;;;;;;;4.35;1.55;;;;;;;;;;5034497;28;20036;-67
2022/07/05 08:26:18;;;;;;;2.90;1.30;;;;;;;;;;5034220;28;20030;-67
2022/07/05 08:28:43;;;;;;;12.45;2.05;;;;;;;;;;5034135;28;20036;-67
2022/07/05 08:31:09;;;;;;;4.43;1.30;;;;;;;;;;5034017;28;20026;-62
2022/07/05 08:33:35;;;;;;;3.03;1.02;;;;;;;;;;5033947;28;20057;-63
2022/07/05 08:36:00;;;;;;;2.95;1.15;;;;;;;;;;5033870;28;20021;-66
2022/07/05 08:38:26;;;;;;;4.35;1.42;;;;;;;;;;5033949;28;20033;-65
2022/07/05 08:40:55;;;;;;;6.60;1.70;;;;;;;;;;5033881;28;20375;-65
2022/07/05 08:43:22;;;;;;;3.40;1.23;;;;;;;;;;5033918;28;20035;-67
2022/07/05 08:45:50;;;;;;;4.68;1.25;;;;;;;;;;5033842;28;20064;-67
2022/07/05 08:48:16;;;;;;;4.53;1.40;;;;;;;;;;5033587;28;20501;-66
2022/07/05 08:50:44;;;;;;;10.23;1.80;;;;;;;;;;5032936;28;20025;-67
2022/07/05 08:53:09;;;;;;;8.13;1.20;;;;;;;;;;5033547;28;20074;-67
2022/07/05 08:55:35;;;;;;;6.10;1.50;;;;;;;;;;5033985;28;20029;-65
2022/07/05 08:58:02;;;;;;;3.67;1.33;;;;;;;;;;5033534;28;20021;-69
2022/07/05 09:00:28;;;;;;;3.58;1.33;;;;;;;;;;5032669;28;20119;-67
2022/07/05 09:02:55;;;;;;;4.35;1.20;;;;;;;;;;5037799;28;20025;-67
2022/07/05 09:05:22;;;;;;;3.30;1.20;;;;;;;;;;5033511;28;20108;-67
2022/07/05 09:07:55;;;;;;;5.50;1.30;;;;;;;;;;5033210;28;20029;-66
2022/07/05 09:10:28;;;;;;;4.10;1.40;;;;;;;;;;5033212;28;20092;-66
2022/07/05 09:12:56;;;;;;;3.63;1.15;;;;;;;;;;5033518;28;20026;-67
2022/07/05 09:15:22;;;;;;;3.70;1.20;;;;;;;;;;5033232;28;20076;-68
2022/07/05 09:17:48;;;;;;;2.40;0.90;;;;;;;;;;5033257;28;20059;-67
2022/07/05 09:20:16;;;;;;;3.95;1.70;;;;;;;;;;5032826;28;20459;-65
2022/07/05 09:22:52;;;;;;;2.40;1.70;;;;;;;;;;5049250;28;20389;-67
2022/07/05 09:25:21;;;;;;;7.45;1.83;;;;;;;;;;5053090;28;20079;-66
2022/07/05 09:28:11;;;;;;;6.15;1.15;;;;;;;;;;5053033;28;20021;-67
2022/07/05 09:30:38;;;;;;;3.33;1.30;;;;;;;;;;5052339;28;20044;-67
2022/07/05 09:33:08;;;;;;;3.60;1.40;;;;;;;;;;5052832;28;20095;-67
2022/07/05 09:35:39;;;;;;;4.55;1.40;;;;;;;;;;5052882;28;20128;-66
2022/07/05 09:38:10;;;;;;;3.10;1.33;;;;;;;;;;5052516;28;20036;-66
2022/07/05 09:40:49;;;;;;;2.10;1.20;;;;;;;;;;5052869;28;20067;-67
2022/07/05 09:43:16;;;;;;;2.85;1.50;;;;;;;;;;5052752;28;20024;-66
2022/07/05 09:46:03;;;;;;;2.42;1.02;;;;;;;;;;5052768;28;20417;-63
2022/07/05 09:48:30;;;;;;;2.28;1.02;;;;;;;;;;5052457;28;20335;-68
2022/07/05 09:51:05;;;;;;;5.18;1.42;;;;;;;;;;5052475;28;20437;-68
2022/07/05 09:53:47;;;;;;;2.28;1.00;;;;;;;;;;5052435;28;20421;-67
2022/07/05 09:56:16;;;;;;;2.05;1.10;;;;;;;;;;5052364;28;20029;-63
2022/07/05 09:58:41;;;;;;;3.60;1.30;;;;;;;;;;5052372;28;20430;-64
2022/07/05 10:01:29;;;;;;;3.55;1.10;;;;;;;;;;5052112;28;20059;-67
2022/07/05 10:03:58;;;;;;;3.60;1.30;;;;;;;;;;5052454;28;20386;-65
2022/07/05 10:06:26;;;;;;;3.55;1.10;;;;;;;;;;5052088;28;20024;-67
2022/07/05 10:08:55;;;;;;;4.60;1.55;;;;;;;;;;5052358;28;20120;-67
2022/07/05 10:11:21;;;;;;;4.97;1.70;;;;;;;;;;5052382;28;20043;-68
2022/07/05 10:13:48;;;;;;;3.72;1.27;;;;;;;;;;5037755;28;20037;-67
2022/07/05 10:16:16;;;;;;;2.55;1.30;;;;;;;;;;5032180;28;20025;-66
2022/07/05 10:18:42;;;;;;;4.95;1.80;;;;;;;;;;5032348;28;20100;-65
2022/07/05 10:21:14;;;;;;;6.85;1.38;;;;;;;;;;5035562;28;20453;-67
2022/07/05 10:23:43;;;;;;;3.17;1.40;;;;;;;;;;5051990;28;20112;-66
2022/07/05 10:26:09;;;;;;;;;;;;;;;;;;5052444;28;20516;-63
2022/07/05 10:28:36;;;;;;;2.58;1.15;;;;;;;;;;5052227;28;19913;-65
2022/07/05 10:31:02;;;;;;;4.70;1.55;;;;;;;;;;5049990;28;20032;-65
2022/07/05 10:33:28;;;;;;;2.88;1.02;;;;;;;;;;5012581;28;20049;-68
2022/07/05 10:35:56;;;;;;;3.95;1.00;;;;;;;;;;5028585;28;20021;-66
2022/07/05 10:38:22;;;;;;;4.80;1.52;;;;;;;;;;5012320;28;20018;-67
2022/07/05 10:40:52;;;;;;;3.83;1.10;;;;;;;;;;5019982;28;20018;-67
2022/07/05 10:43:21;;;;;;;2.60;1.10;;;;;;;;;;5030631;28;20458;-67
2022/07/05 10:45:48;;;;;;;1.92;1.05;;;;;;;;;;5031725;28;20118;-62
2022/07/05 10:48:20;;;;;;;2.00;1.08;;;;;;;;;;5031758;28;20025;-67
2022/07/05 10:50:50;;;;;;;2.40;1.05;;;;;;;;;;5031407;28;20029;-68
2022/07/05 10:53:23;;;;;;;;;;;;;;;;;;5032513;28;20382;-67
2022/07/05 10:56:03;;;;;;;5.80;1.90;;;;;;;;;;5032058;28;19920;-68
2022/07/05 10:58:38;;;;;;;6.50;1.40;;;;;;;;;;5031952;28;20494;-67
2022/07/05 11:01:15;;;;;;;3.70;1.35;;;;;;;;;;5032218;28;20022;-67
2022/07/05 11:04:02;;;;;;;5.82;1.10;;;;;;;;;;5031873;28;20029;-67
2022/07/05 11:06:51;;;;;;;3.55;1.38;;;;;;;;;;5031926;28;20105;-64
2022/07/05 11:09:19;;;;;;;3.70;1.00;;;;;;;;;;5031645;28;20095;-65
2022/07/05 11:12:00;;;;;;;2.53;1.17;;;;;;;;;;5031975;28;20151;-68
2022/07/05 11:14:26;;;;;;;4.18;1.33;;;;;;;;;;5034430;28;20033;-66
2022/07/05 11:17:11;;;;;;;5.22;1.20;;;;;;;;;;5035552;28;20076;-65
2022/07/05 11:20:06;;;;;;;5.05;1.20;;;;;;;;;;5035132;28;20057;-68
2022/07/05 11:22:33;;;;;;;11.55;1.67;;;;;;;;;;5050523;28;20032;-67
2022/07/05 11:25:00;;;;;;;3.35;1.33;;;;;;;;;;5041179;28;20415;-69
2022/07/05 11:27:26;;;;;;;7.05;1.00;;;;;;;;;;5035242;28;20475;-65
2022/07/05 11:29:53;;;;;;;4.43;1.45;;;;;;;;;;5033813;28;20027;-60
2022/07/05 11:32:22;;;;;;;5.93;1.40;;;;;;;;;;5035035;28;20070;-61
2022/07/05 11:34:53;;;;;;;1.98;1.10;;;;;;;;;;5035291;28;20044;-62
2022/07/05 11:37:28;;;;;;;2.63;1.10;;;;;;;;;;5035464;28;20036;-59
2022/07/05 11:40:11;;;;;;;2.08;1.08;;;;;;;;;;5035123;28;20060;-60
2022/07/05 11:42:45;;;;;;;3.65;1.33;;;;;;;;;;5035021;28;20022;-71
2022/07/05 11:45:11;;;;;;;3.45;1.15;;;;;;;;;;5034983;28;20017;-66
2022/07/05 11:47:37;;;;;;;4.70;1.30;;;;;;;;;;5034689;28;20029;-63
2022/07/05 11:50:03;;;;;;;5.78;1.20;;;;;;;;;;5034668;28;20486;-66
2022/07/05 11:52:30;;;;;;;3.75;1.33;;;;;;;;;;5034907;28;20096;-66
2022/07/05 11:55:00;;;;;;;3.40;1.27;;;;;;;;;;5034750;28;20033;-66
2022/07/05 11:57:26;;;;;;;2.30;1.00;;;;;;;;;;5034850;28;20471;-64
2022/07/05 11:59:52;;;;;;;2.13;1.00;;;;;;;;;;5034667;28;20086;-63
2022/07/05 12:02:18;;;;;;;6.50;1.50;;;;;;;;;;5034437;28;20482;-66
2022/07/05 12:04:51;;;;;;;10.10;1.23;;;;;;;;;;5034755;28;20025;-66
2022/07/05 12:07:31;;;;;;;7.18;1.15;;;;;;;;;;5034706;28;20021;-66
2022/07/05 12:12:44;;;;;;;6.72;1.30;;;;;;;;;;5034823;28;20036;-66
2022/07/05 12:15:12;;;;;;;5.90;1.10;;;;;;;;;;5033515;28;20394;-68
2022/07/05 12:17:41;;;;;;;5.13;1.40;;;;;;;;;;5033687;28;20040;-68
2022/07/05 12:20:09;;;;;;;5.13;1.33;;;;;;;;;;5033604;28;20491;-66
2022/07/05 12:22:43;;;;;;;2.63;0.95;;;;;;;;;;5049631;28;20048;-67
2022/07/05 12:25:13;;;;;;;11.45;2.60;;;;;;;;;;5030232;28;20046;-64
2022/07/05 12:27:41;;;;;;;2.95;1.02;;;;;;;;;;5025077;28;20022;-68
2022/07/05 12:30:09;;;;;;;2.10;1.05;;;;;;;;;;5021960;28;20399;-67
2022/07/05 12:32:58;;;;;;;3.53;1.23;;;;;;;;;;5024012;28;20018;-64
2022/07/05 12:35:34;;;;;;;4.47;1.03;;;;;;;;;;5023637;28;20075;-70
2022/07/05 12:38:03;;;;;;;2.40;0.90;;;;;;;;;;5033010;28;20494;-67
2022/07/05 12:40:29;;;;;;;5.18;1.55;;;;;;;;;;5033964;28;20056;-68
2022/07/05 12:43:06;;;;;;;10.23;2.03;;;;;;;;;;5033864;28;20052;-63
2022/07/05 12:45:33;;;;;;;4.93;1.10;;;;;;;;;;5033594;28;20501;-65
2022/07/05 12:48:01;;;;;;;2.17;1.05;;;;;;;;;;5033633;28;20040;-63
2022/07/05 12:50:29;;;;;;;3.08;1.10;;;;;;;;;;5033662;28;20054;-65
2022/07/05 12:52:58;;;;;;;2.90;1.10;;;;;;;;;;5033453;28;20108;-68
2022/07/05 12:58:16;;;;;;;3.92;1.50;;;;;;;;;;4972381;28;20031;-69
2022/07/05 13:00:41;;;;;;;6.00;1.40;;;;;;;;;;4972173;28;20050;-69
2022/07/05 13:03:07;;;;;;;5.22;1.00;;;;;;;;;;4972681;28;20030;-70
2022/07/05 13:05:33;;;;;;;2.88;1.25;;;;;;;;;;4972674;28;20158;-70
2022/07/05 13:07:58;;;;;;;4.30;1.10;;;;;;;;;;4972286;28;20122;-68
2022/07/05 13:10:28;;;;;;;1.65;0.90;;;;;;;;;;4972371;28;20141;-70
2022/07/05 13:12:53;;;;;;;3.07;1.20;;;;;;;;;;4972329;28;20039;-67
2022/07/05 13:15:19;;;;;;;1.65;1.00;;;;;;;;;;4971928;28;20069;-69
2022/07/05 13:17:45;;;;;;;5.55;0.90;;;;;;;;;;4972317;28;20030;-68
2022/07/05 13:20:13;;;;;;;1.83;1.10;;;;;;;;;;4972010;28;20545;-68
2022/07/05 13:22:38;;;;;;;2.47;0.95;;;;;;;;;;4971942;28;20077;-67
2022/07/05 13:25:04;;;;;;;4.35;1.23;;;;;;;;;;4972027;28;20034;-68
2022/07/05 13:27:30;;;;;;;7.65;1.35;;;;;;;;;;4971697;28;20105;-68
2022/07/05 13:29:55;;;;;;;3.28;0.90;;;;;;;;;;4971655;28;20023;-66
2022/07/05 13:32:21;;;;;;;1.63;0.90;;;;;;;;;;4971466;28;20061;-68
2022/07/05 13:34:48;;;;;;;3.58;0.90;;;;;;;;;;4995552;28;20041;-68
2022/07/05 13:37:14;;;;;;;3.85;0.77;;;;;;;;;;5032389;28;20456;-66
2022/07/05 13:39:40;;;;;;;1.40;0.70;;;;;;;;;;5032691;28;20042;-66
2022/07/05 13:42:06;;;;;;;3.20;0.90;;;;;;;;;;5032574;28;20040;-67
2022/07/05 13:44:32;;;;;;;2.40;0.90;;;;;;;;;;5032626;28;20045;-70
2022/07/05 13:46:57;;;;;;;4.53;1.23;;;;;;;;;;5032666;28;20517;-67
2022/07/05 13:49:23;;;;;;;2.00;0.70;;;;;;;;;;5032699;28;20032;-64
2022/07/05 13:51:49;;;;;;;2.60;0.80;;;;;;;;;;5032764;28;20036;-68
2022/07/05 13:54:15;;;;;;;1.88;0.80;;;;;;;;;;5032349;28;20542;-69
2022/07/05 13:56:41;;;;;;;4.93;1.00;;;;;;;;;;5032494;28;20071;-69
2022/07/05 13:59:07;;;;;;;8.07;1.08;;;;;;;;;;5032275;28;20025;-69
2022/07/05 14:01:32;;;;;;;3.67;0.75;;;;;;;;;;5032546;28;20037;-67
2022/07/05 14:04:00;;;;;;;3.42;0.90;;;;;;;;;;5032340;28;20030;-66
2022/07/05 14:06:26;;;;;;;6.28;1.40;;;;;;;;;;5032592;28;20026;-69
2022/07/05 14:08:52;;;;;;;3.45;0.80;;;;;;;;;;5032182;28;20494;-68
2022/07/05 14:11:17;;;;;;;2.58;0.77;;;;;;;;;;5032469;28;20155;-68
2022/07/05 14:13:43;;;;;;;2.95;0.70;;;;;;;;;;5032314;28;20112;-67
2022/07/05 14:16:09;;;;;;;4.60;0.93;;;;;;;;;;5031987;28;20029;-66
2022/07/05 14:18:34;;;;;;;6.43;0.90;;;;;;;;;;5032246;28;20112;-65
2022/07/05 14:21:00;;;;;;;3.05;0.95;;;;;;;;;;5032133;28;20103;-68
2022/07/05 14:23:26;;;;;;;2.15;0.95;;;;;;;;;;5032296;28;20042;-69
2022/07/05 14:25:51;;;;;;;5.20;1.05;;;;;;;;;;5032113;28;20021;-68
2022/07/05 14:28:17;;;;;;;4.80;1.55;;;;;;;;;;5031839;28;20029;-65
2022/07/05 14:30:44;;;;;;;4.70;0.70;;;;;;;;;;5032222;28;20071;-69
2022/07/05 14:33:11;;;;;;;1.60;0.88;;;;;;;;;;5032141;28;20473;-63
2022/07/05 14:35:38;;;;;;;2.95;0.70;;;;;;;;;;5032092;28;20071;-69
2022/07/05 14:38:04;;;;;;;4.53;0.85;;;;;;;;;;5031927;28;20030;-66
2022/07/05 14:40:30;;;;;;;3.40;0.73;;;;;;;;;;5032140;28;20518;-68
2022/07/05 14:42:57;;;;;;;2.78;1.00;;;;;;;;;;5031797;28;20032;-66
2022/07/05 14:45:23;;;;;;;3.05;0.90;;;;;;;;;;5031920;28;20030;-63
2022/07/05 14:47:49;;;;;;;2.67;0.93;;;;;;;;;;5032298;28;20029;-69
2022/07/05 14:50:15;;;;;;;3.20;0.80;;;;;;;;;;5035846;28;20036;-63
2022/07/05 14:52:41;;;;;;;6.03;0.90;;;;;;;;;;5035982;28;20032;-65
2022/07/05 14:55:07;;;;;;;2.72;0.93;;;;;;;;;;5036002;28;20038;-68
2022/07/05 14:57:33;;;;;;;2.92;0.70;;;;;;;;;;5035734;28;20026;-67
2022/07/05 14:59:58;;;;;;;2.08;1.00;;;;;;;;;;5035512;28;20036;-68